Time;durP1;ratioP1;P1;durP2;ratioP2;P2;SDS_P1;SDS_P2;PMS_P1;PMS_P2;Temp;Humidity;BMP_temperature;BMP_pressure;BME280_temperature;BME280_humidity;BME280_pressure;Samples;Min_cycle;Max_cycle;Signal;HPM_P1;HPM_P2
2022/04/23 00:00:58;;;;;;;9.43;2.42;;;19.50;58.70;;;;;;5027885;28;20083;-71
2022/04/23 00:04:04;;;;;;;6.32;2.75;;;19.50;58.70;;;;;;5027088;28;20443;-68
2022/04/23 00:07:10;;;;;;;11.60;2.60;;;19.50;58.60;;;;;;5027968;28;20056;-67
2022/04/23 00:10:16;;;;;;;8.45;2.42;;;19.50;58.50;;;;;;5025492;28;20092;-70
2022/04/23 00:13:22;;;;;;;9.10;3.35;;;19.50;58.60;;;;;;5025423;28;20056;-75
2022/04/23 00:16:28;;;;;;;7.13;1.85;;;19.40;58.50;;;;;;5027480;28;20839;-76
2022/04/23 00:19:35;;;;;;;9.45;2.40;;;19.40;58.60;;;;;;5028065;28;20060;-66
2022/04/23 00:22:41;;;;;;;12.57;3.47;;;19.40;58.60;;;;;;5026391;28;20037;-68
2022/04/23 00:25:51;;;;;;;14.77;2.75;;;19.40;58.70;;;;;;5026831;28;20033;-66
2022/04/23 00:28:58;;;;;;;11.00;3.80;;;19.40;58.90;;;;;;5027536;28;20428;-69
2022/04/23 00:32:04;;;;;;;16.10;3.78;;;19.40;59.10;;;;;;5028018;28;20120;-67
2022/04/23 00:35:10;;;;;;;15.63;3.83;;;19.30;59.20;;;;;;5029958;28;20091;-66
2022/04/23 00:37:36;;;;;;;16.95;4.13;;;19.40;59.50;;;;;;5032784;28;20461;-70
2022/04/23 00:40:06;;;;;;;17.63;3.47;;;19.30;59.60;;;;;;5031735;28;20049;-64
2022/04/23 00:42:44;;;;;;;7.90;2.92;;;19.30;59.60;;;;;;5031012;28;20120;-68
2022/04/23 00:45:11;;;;;;;10.18;3.50;;;19.30;59.60;;;;;;5032319;28;20384;-74
2022/04/23 00:47:38;;;;;;;15.02;4.43;;;19.30;59.60;;;;;;5031179;28;20476;-70
2022/04/23 00:50:05;;;;;;;9.75;3.17;;;19.30;59.70;;;;;;5032019;28;20467;-69
2022/04/23 00:52:32;;;;;;;9.75;3.03;;;19.30;59.70;;;;;;5028178;28;20075;-68
2022/04/23 00:55:00;;;;;;;14.95;3.17;;;19.20;59.60;;;;;;5032299;28;20020;-72
2022/04/23 00:57:27;;;;;;;10.00;3.05;;;19.20;59.60;;;;;;5030662;28;20026;-69
2022/04/23 00:59:54;;;;;;;15.07;3.05;;;19.30;59.60;;;;;;5031268;28;20105;-73
2022/04/23 01:02:22;;;;;;;7.90;2.63;;;19.20;59.60;;;;;;5030048;28;20036;-67
2022/04/23 01:04:49;;;;;;;10.25;3.08;;;19.20;59.60;;;;;;5029655;28;20025;-72
2022/04/23 01:07:16;;;;;;;8.43;2.38;;;19.20;59.60;;;;;;5030860;28;20072;-69
2022/04/23 01:09:44;;;;;;;8.60;2.00;;;19.20;59.60;;;;;;5010493;28;20037;-69
2022/04/23 01:12:11;;;;;;;8.32;1.88;;;19.20;59.70;;;;;;5031510;28;20098;-72
2022/04/23 01:15:16;;;;;;;24.10;3.40;;;19.20;59.80;;;;;;5031584;28;20037;-67
2022/04/23 01:17:43;;;;;;;13.63;2.53;;;19.20;59.70;;;;;;5029913;28;20405;-73
2022/04/23 01:20:14;;;;;;;6.43;2.17;;;19.10;59.60;;;;;;5031311;28;20087;-72
2022/04/23 01:22:44;;;;;;;10.30;3.05;;;19.10;59.70;;;;;;5030248;28;20086;-74
2022/04/23 01:25:12;;;;;;;12.30;2.67;;;19.10;59.70;;;;;;5031309;28;20461;-67
2022/04/23 01:27:40;;;;;;;15.23;3.42;;;19.10;59.80;;;;;;5030048;28;20101;-68
2022/04/23 01:30:12;;;;;;;12.30;3.45;;;19.10;59.90;;;;;;5030835;28;20040;-68
2022/04/23 01:32:39;;;;;;;16.75;4.30;;;19.10;60.00;;;;;;5031249;28;20472;-66
2022/04/23 01:35:06;;;;;;;17.23;4.93;;;19.10;60.10;;;;;;5029712;28;20384;-72
2022/04/23 01:37:33;;;;;;;12.07;4.07;;;19.10;60.20;;;;;;5031046;28;20026;-72
2022/04/23 01:39:59;;;;;;;10.73;2.85;;;19.10;60.90;;;;;;5030494;28;20025;-72
2022/04/23 01:42:26;;;;;;;13.55;3.35;;;19.00;60.10;;;;;;5030419;28;20037;-73
2022/04/23 01:44:53;;;;;;;9.88;3.28;;;19.00;60.00;;;;;;5030757;28;20029;-70
2022/04/23 01:47:21;;;;;;;16.38;3.70;;;19.00;59.90;;;;;;5030239;28;20026;-71
2022/04/23 01:49:47;;;;;;;10.90;2.70;;;19.00;59.80;;;;;;5031378;28;20128;-70
2022/04/23 01:52:14;;;;;;;12.60;4.00;;;19.00;59.80;;;;;;5029985;28;20029;-74
2022/04/23 01:54:41;;;;;;;9.55;3.08;;;19.00;59.80;;;;;;5030744;28;20112;-69
2022/04/23 01:57:07;;;;;;;7.32;3.28;;;19.00;59.80;;;;;;5029240;28;20029;-66
2022/04/23 01:59:34;;;;;;;10.70;2.97;;;19.00;59.80;;;;;;5030984;28;20029;-72
2022/04/23 02:02:00;;;;;;;11.43;3.83;;;19.00;59.90;;;;;;5029908;28;20057;-71
2022/04/23 02:04:27;;;;;;;7.43;3.55;;;18.90;59.90;;;;;;5030143;28;20403;-72
2022/04/23 02:06:53;;;;;;;7.18;3.00;;;19.00;60.10;;;;;;5030108;28;20041;-73
2022/04/23 02:09:20;;;;;;;9.88;5.57;;;18.90;59.90;;;;;;5029738;28;20036;-68
2022/04/23 02:11:46;;;;;;;19.20;7.88;;;18.90;59.90;;;;;;5030871;28;20451;-72
2022/04/23 02:14:13;;;;;;;15.55;5.90;;;18.90;60.00;;;;;;5028220;28;20033;-74
2022/04/23 02:16:40;;;;;;;12.32;4.75;;;18.90;60.10;;;;;;5030075;28;20116;-69
2022/04/23 02:19:06;;;;;;;8.38;3.63;;;18.90;60.10;;;;;;5029223;28;20388;-70
2022/04/23 02:21:33;;;;;;;9.50;3.35;;;18.90;60.10;;;;;;5028702;28;20022;-68
2022/04/23 02:24:03;;;;;;;13.40;3.00;;;18.90;60.70;;;;;;5010433;28;20040;-68
2022/04/23 02:26:30;;;;;;;9.85;3.28;;;18.90;60.10;;;;;;5030200;28;20022;-69
2022/04/23 02:28:56;;;;;;;11.32;3.70;;;18.90;60.10;;;;;;5029775;28;20021;-69
2022/04/23 02:31:23;;;;;;;12.57;3.30;;;18.80;60.00;;;;;;5029412;28;20021;-71
2022/04/23 02:33:49;;;;;;;10.15;3.28;;;18.80;60.00;;;;;;5029341;28;20033;-70
2022/04/23 02:36:16;;;;;;;13.15;3.85;;;18.80;60.10;;;;;;5028712;28;20075;-74
2022/04/23 02:38:42;;;;;;;11.13;3.47;;;18.80;60.00;;;;;;5029562;28;20495;-74
2022/04/23 02:41:10;;;;;;;15.82;3.03;;;18.80;60.00;;;;;;5029487;28;20029;-74
2022/04/23 02:43:41;;;;;;;10.52;3.67;;;18.80;60.00;;;;;;5028581;28;20095;-66
2022/04/23 02:46:08;;;;;;;15.43;3.30;;;18.80;60.00;;;;;;5029834;28;20040;-71
2022/04/23 02:48:38;;;;;;;8.40;3.03;;;18.80;60.00;;;;;;5009687;28;20021;-68
2022/04/23 02:51:04;;;;;;;9.73;3.25;;;18.80;60.00;;;;;;5028685;28;20028;-67
2022/04/23 02:53:31;;;;;;;9.00;2.65;;;18.80;59.90;;;;;;5027620;28;20392;-72
2022/04/23 02:55:57;;;;;;;14.30;3.47;;;18.70;59.90;;;;;;5029802;28;20353;-71
2022/04/23 02:58:25;;;;;;;14.18;2.75;;;18.70;60.60;;;;;;5028649;28;20029;-71
2022/04/23 03:00:54;;;;;;;10.63;2.58;;;18.70;60.00;;;;;;5028893;28;20069;-68
2022/04/23 03:03:22;;;;;;;10.80;2.80;;;18.70;60.00;;;;;;5029711;28;20041;-69
2022/04/23 03:05:53;;;;;;;4.97;1.83;;;18.70;60.10;;;;;;5028579;28;20067;-69
2022/04/23 03:08:20;;;;;;;6.70;2.25;;;18.70;60.10;;;;;;5028879;28;20041;-71
2022/04/23 03:10:46;;;;;;;12.07;3.38;;;18.70;60.10;;;;;;5028261;28;20076;-67
2022/04/23 03:13:14;;;;;;;15.65;3.58;;;18.70;60.00;;;;;;5028690;28;20025;-72
2022/04/23 03:15:44;;;;;;;6.60;2.75;;;18.70;60.00;;;;;;5028801;28;20888;-69
2022/04/23 03:18:13;;;;;;;15.65;4.03;;;18.70;60.10;;;;;;5028738;28;20377;-73
2022/04/23 03:20:43;;;;;;;14.82;3.65;;;18.70;60.10;;;;;;5027783;28;20106;-70
2022/04/23 03:23:12;;;;;;;18.88;3.40;;;18.60;60.30;;;;;;5028327;28;20025;-71
2022/04/23 03:25:40;;;;;;;19.02;4.07;;;18.60;60.40;;;;;;5028642;28;20036;-71
2022/04/23 03:28:07;;;;;;;15.57;3.25;;;18.60;60.50;;;;;;5009358;28;20380;-72
2022/04/23 03:30:33;;;;;;;15.73;4.63;;;18.60;60.60;;;;;;5028982;28;20130;-71
2022/04/23 03:33:00;;;;;;;14.23;3.40;;;18.60;60.60;;;;;;5027116;28;20029;-72
2022/04/23 03:35:27;;;;;;;15.18;5.00;;;18.60;60.60;;;;;;5028403;28;20025;-72
2022/04/23 03:37:55;;;;;;;12.95;3.45;;;18.60;60.50;;;;;;5029115;28;20024;-72
2022/04/23 03:40:22;;;;;;;11.63;3.03;;;18.60;60.40;;;;;;5027840;28;20021;-72
2022/04/23 03:42:49;;;;;;;16.20;4.15;;;18.50;60.30;;;;;;5028177;28;20026;-67
2022/04/23 03:45:19;;;;;;;19.17;4.43;;;18.50;60.20;;;;;;5009763;28;20083;-71
2022/04/23 03:47:46;;;;;;;12.90;3.28;;;18.50;60.20;;;;;;5029085;28;20026;-70
2022/04/23 03:50:14;;;;;;;14.00;3.47;;;18.50;60.20;;;;;;5026975;28;20040;-73
2022/04/23 03:52:41;;;;;;;20.15;4.57;;;18.50;60.10;;;;;;5028019;28;20021;-71
2022/04/23 03:55:09;;;;;;;14.50;4.13;;;18.50;60.10;;;;;;5028282;28;20025;-69
2022/04/23 03:57:54;;;;;;;12.00;2.92;;;18.50;60.00;;;;;;5027448;28;20026;-67
2022/04/23 04:00:21;;;;;;;15.63;3.58;;;18.50;59.90;;;;;;5028436;28;20172;-74
2022/04/23 04:02:49;;;;;;;13.30;4.18;;;18.50;59.80;;;;;;5026466;28;20033;-73
2022/04/23 04:05:15;;;;;;;14.77;3.97;;;18.40;59.90;;;;;;5028153;28;20025;-70
2022/04/23 04:07:43;;;;;;;9.43;3.13;;;18.40;60.10;;;;;;5027762;28;20017;-72
2022/04/23 04:10:15;;;;;;;21.73;4.20;;;18.40;60.20;;;;;;5027023;28;20069;-69
2022/04/23 04:12:42;;;;;;;16.05;5.00;;;18.40;60.40;;;;;;5028885;28;20056;-70
2022/04/23 04:15:10;;;;;;;18.58;3.95;;;18.40;60.50;;;;;;5027605;28;20017;-65
2022/04/23 04:17:38;;;;;;;16.45;3.72;;;18.40;60.80;;;;;;5009331;28;20033;-73
2022/04/23 04:20:14;;;;;;;20.63;4.65;;;18.40;60.90;;;;;;5005341;28;20404;-71
2022/04/23 04:22:42;;;;;;;18.30;4.43;;;18.40;61.10;;;;;;5009431;28;20026;-70
2022/04/23 04:25:13;;;;;;;18.30;4.32;;;18.40;61.10;;;;;;5026999;28;20049;-66
2022/04/23 04:27:40;;;;;;;19.25;4.75;;;18.40;61.20;;;;;;5026260;28;20033;-68
2022/04/23 04:30:08;;;;;;;23.75;4.55;;;18.40;61.20;;;;;;5026868;28;20045;-66
2022/04/23 04:32:36;;;;;;;21.15;4.93;;;18.30;61.20;;;;;;5007756;28;20029;-73
2022/04/23 04:35:03;;;;;;;25.55;6.93;;;18.30;61.30;;;;;;5010530;28;20111;-73
2022/04/23 04:37:30;;;;;;;25.83;5.93;;;18.30;61.60;;;;;;5026945;28;20028;-70
2022/04/23 04:39:56;;;;;;;37.80;10.07;;;18.30;61.70;;;;;;5028250;28;20053;-70
2022/04/23 04:42:23;;;;;;;29.55;10.07;;;18.30;61.80;;;;;;5025307;28;20515;-71
2022/04/23 04:44:52;;;;;;;28.15;12.43;;;18.30;61.80;;;;;;5027157;28;20018;-70
2022/04/23 04:47:19;;;;;;;21.55;11.43;;;18.20;61.90;;;;;;5026999;28;20025;-72
2022/04/23 04:49:45;;;;;;;14.05;6.55;;;18.20;61.70;;;;;;5026012;28;20037;-71
2022/04/23 04:52:11;;;;;;;10.57;4.75;;;18.20;61.50;;;;;;5027588;28;20024;-69
2022/04/23 04:54:38;;;;;;;10.77;4.03;;;18.20;61.30;;;;;;5027046;28;20051;-70
2022/04/23 04:57:05;;;;;;;12.65;3.42;;;18.20;61.30;;;;;;5027325;28;20499;-72
2022/04/23 04:59:32;;;;;;;11.45;3.33;;;18.20;61.40;;;;;;5026440;28;20030;-67
2022/04/23 05:01:59;;;;;;;15.30;4.28;;;18.20;61.40;;;;;;5027625;28;20040;-74
2022/04/23 05:04:27;;;;;;;14.95;4.00;;;18.20;61.50;;;;;;5027198;28;20036;-74
2022/04/23 05:06:53;;;;;;;24.63;7.25;;;18.20;61.60;;;;;;5026375;28;20014;-70
2022/04/23 05:09:20;;;;;;;29.40;12.18;;;18.20;61.80;;;;;;5028826;28;20079;-66
2022/04/23 05:11:46;;;;;;;23.95;10.40;;;18.20;61.90;;;;;;5026188;28;20131;-69
2022/04/23 05:14:13;;;;;;;17.98;5.68;;;18.20;62.00;;;;;;5027964;28;20514;-75
2022/04/23 05:16:39;;;;;;;19.48;4.43;;;18.20;62.20;;;;;;5026986;28;20335;-69
2022/04/23 05:19:05;;;;;;;24.35;6.78;;;18.10;63.60;;;;;;5031213;28;20446;-69
2022/04/23 05:21:32;;;;;;;19.48;5.55;;;18.10;64.00;;;;;;5028783;28;20053;-69
2022/04/23 05:23:58;;;;;;;24.48;4.80;;;18.00;63.80;;;;;;5029943;28;20024;-70
2022/04/23 05:26:25;;;;;;;13.23;6.65;;;18.10;63.40;;;;;;5029874;28;20022;-71
2022/04/23 05:28:51;;;;;;;18.88;4.57;;;18.10;63.10;;;;;;5030528;28;20018;-70
2022/04/23 05:31:18;;;;;;;15.82;4.75;;;18.10;62.90;;;;;;5030597;28;20017;-69
2022/04/23 05:33:44;;;;;;;18.23;5.05;;;18.00;63.00;;;;;;5029709;28;20065;-70
2022/04/23 05:36:11;;;;;;;14.23;4.00;;;18.00;63.10;;;;;;5030963;28;20495;-69
2022/04/23 05:38:37;;;;;;;30.17;5.53;;;18.00;63.40;;;;;;5012441;28;20476;-69
2022/04/23 05:41:05;;;;;;;25.63;5.72;;;18.10;63.30;;;;;;5029768;28;20029;-69
2022/04/23 05:43:31;;;;;;;28.90;6.97;;;18.00;63.20;;;;;;5030083;28;20504;-65
2022/04/23 05:46:00;;;;;;;24.10;5.05;;;18.00;63.20;;;;;;5030044;28;20056;-67
2022/04/23 05:48:27;;;;;;;22.60;8.30;;;18.00;63.40;;;;;;5030164;28;20037;-70
2022/04/23 05:50:53;;;;;;;24.60;8.90;;;18.00;63.40;;;;;;5028520;28;20042;-70
2022/04/23 05:53:20;;;;;;;25.80;7.70;;;18.00;63.50;;;;;;5031259;28;20053;-68
2022/04/23 05:55:46;;;;;;;20.90;7.15;;;18.00;63.50;;;;;;5028778;28;20024;-70
2022/04/23 05:58:13;;;;;;;22.50;5.22;;;18.00;63.60;;;;;;5030774;28;20026;-69
2022/04/23 06:00:39;;;;;;;15.30;5.30;;;18.00;63.60;;;;;;5030351;28;20036;-68
2022/04/23 06:03:06;;;;;;;23.15;5.47;;;18.00;63.60;;;;;;5029557;28;20037;-70
2022/04/23 06:05:32;;;;;;;19.08;4.03;;;18.00;63.50;;;;;;5029887;28;20075;-73
2022/04/23 06:07:59;;;;;;;39.08;7.30;;;18.00;63.60;;;;;;5029919;28;20033;-71
2022/04/23 06:10:25;;;;;;;24.65;5.55;;;18.00;64.90;;;;;;5030120;28;20036;-74
2022/04/23 06:12:52;;;;;;;15.00;3.40;;;18.00;64.40;;;;;;5029282;28;20014;-73
2022/04/23 06:15:18;;;;;;;17.50;5.47;;;18.00;64.70;;;;;;5011528;28;20492;-72
2022/04/23 06:17:45;;;;;;;15.77;3.88;;;17.90;64.70;;;;;;5011296;28;20021;-66
2022/04/23 06:20:12;;;;;;;24.83;4.15;;;17.90;64.70;;;;;;5029925;28;20175;-73
2022/04/23 06:22:38;;;;;;;61.05;6.30;;;17.90;64.80;;;;;;5029370;28;20439;-74
2022/04/23 06:25:06;;;;;;;32.20;6.45;;;17.90;64.70;;;;;;5028893;28;20364;-75
2022/04/23 06:27:32;;;;;;;25.52;5.07;;;17.90;64.70;;;;;;5027959;28;20037;-73
2022/04/23 06:29:59;;;;;;;17.65;4.00;;;17.90;64.60;;;;;;5029480;28;20033;-75
2022/04/23 06:32:26;;;;;;;20.92;4.15;;;18.00;64.20;;;;;;5027760;28;20392;-70
2022/04/23 06:34:52;;;;;;;17.42;4.53;;;18.00;64.50;;;;;;5011484;28;20696;-72
2022/04/23 06:37:19;;;;;;;11.30;4.50;;;17.90;64.70;;;;;;5012973;28;20027;-71
2022/04/23 06:39:45;;;;;;;143.10;20.45;;;17.90;65.90;;;;;;5030324;28;20102;-70
2022/04/23 06:42:12;;;;;;;166.82;25.77;;;17.80;67.20;;;;;;5012006;28;20045;-72
2022/04/23 06:44:39;;;;;;;93.55;15.70;;;17.80;68.90;;;;;;5030682;28;20492;-71
2022/04/23 06:47:05;;;;;;;69.50;10.27;;;17.80;70.30;;;;;;5011273;28;20049;-72
2022/04/23 06:49:35;;;;;;;61.58;10.27;;;17.90;70.80;;;;;;5029908;28;20484;-72
2022/04/23 06:52:02;;;;;;;41.92;6.15;;;18.00;70.90;;;;;;5028359;28;20091;-71
2022/04/23 06:54:36;;;;;;;27.60;5.68;;;18.00;70.90;;;;;;5011893;28;20562;-71
2022/04/23 06:57:06;;;;;;;25.85;6.22;;;18.10;71.40;;;;;;5009201;28;20549;-71
2022/04/23 06:59:33;;;;;;;19.15;5.78;;;18.10;70.30;;;;;;5042537;28;20048;-67
2022/04/23 07:02:02;;;;;;;22.92;7.03;;;18.20;70.10;;;;;;5028166;28;20032;-76
2022/04/23 07:04:31;;;;;;;24.55;9.02;;;18.20;69.80;;;;;;5027219;28;20021;-73
2022/04/23 07:06:58;;;;;;;19.27;7.15;;;18.20;69.70;;;;;;5027995;28;20043;-67
2022/04/23 07:09:24;;;;;;;15.13;5.15;;;18.30;69.70;;;;;;5027610;28;20033;-66
2022/04/23 07:11:51;;;;;;;12.90;5.65;;;18.30;69.40;;;;;;5009722;28;20026;-68
2022/04/23 07:14:18;;;;;;;22.80;10.10;;;18.30;69.20;;;;;;5026370;28;20021;-75
2022/04/23 07:16:44;;;;;;;32.42;14.43;;;18.40;69.20;;;;;;5028074;28;20032;-74
2022/04/23 07:19:11;;;;;;;17.75;9.88;;;18.40;69.00;;;;;;5028009;28;20087;-73
2022/04/23 07:21:38;;;;;;;30.02;7.72;;;18.40;68.80;;;;;;5026018;28;20034;-69
2022/04/23 07:24:10;;;;;;;18.15;6.18;;;18.40;68.60;;;;;;5025723;28;20053;-72
2022/04/23 07:26:38;;;;;;;18.90;5.68;;;18.50;68.50;;;;;;5027274;28;20025;-71
2022/04/23 07:29:07;;;;;;;28.88;6.65;;;18.50;68.30;;;;;;5027982;28;20033;-75
2022/04/23 07:31:34;;;;;;;14.25;3.88;;;18.50;68.00;;;;;;5026466;28;20511;-71
2022/04/23 07:39:41;;;;;;;20.83;4.45;;;18.60;67.60;;;;;;5027294;28;20052;-73
2022/04/23 07:42:08;;;;;;;12.00;3.45;;;18.70;68.00;;;;;;5025984;28;20116;-71
2022/04/23 07:44:42;;;;;;;15.55;4.78;;;18.70;67.70;;;;;;5025839;28;20067;-70
2022/04/23 07:47:09;;;;;;;21.40;3.88;;;18.70;67.70;;;;;;5027281;28;20025;-70
2022/04/23 07:49:35;;;;;;;17.42;4.07;;;18.80;67.60;;;;;;5027241;28;20033;-72
2022/04/23 07:52:02;;;;;;;16.40;4.40;;;18.80;67.40;;;;;;5024570;28;20033;-65
2022/04/23 07:54:43;;;;;;;16.08;3.80;;;18.80;67.10;;;;;;5026850;28;20513;-69
2022/04/23 07:57:11;;;;;;;11.90;3.63;;;18.80;67.10;;;;;;5001544;28;20017;-76
2022/04/23 07:59:42;;;;;;;12.05;3.38;;;18.90;66.80;;;;;;5026025;28;20496;-74
2022/04/23 08:02:09;;;;;;;86.97;9.63;;;19.00;66.40;;;;;;5025784;28;20024;-72
2022/04/23 08:04:36;;;;;;;47.45;7.30;;;19.00;66.10;;;;;;5008285;28;20060;-74
2022/04/23 08:07:03;;;;;;;34.92;7.65;;;19.00;65.60;;;;;;5027366;28;20025;-75
2022/04/23 08:09:29;;;;;;;23.90;5.65;;;19.10;65.50;;;;;;5026666;28;20540;-73
2022/04/23 08:11:56;;;;;;;31.10;10.55;;;19.10;65.20;;;;;;5027729;28;20043;-75
2022/04/23 08:14:22;;;;;;;25.90;8.68;;;19.10;65.30;;;;;;5027868;28;20049;-74
2022/04/23 08:16:50;;;;;;;26.25;6.57;;;19.20;65.30;;;;;;5029189;28;20439;-75
2022/04/23 08:19:17;;;;;;;12.18;4.22;;;19.20;64.90;;;;;;5026837;28;20041;-77
2022/04/23 08:21:44;;;;;;;17.42;3.85;;;19.20;64.80;;;;;;5029106;28;20029;-77
2022/04/23 08:24:10;;;;;;;15.95;4.03;;;19.20;64.50;;;;;;5028627;28;20029;-75
2022/04/23 08:26:37;;;;;;;14.00;2.92;;;19.30;64.20;;;;;;5028866;28;20028;-69
2022/04/23 08:31:48;;;;;;;9.60;1.98;;;19.30;64.10;;;;;;5026728;28;20088;-76
2022/04/23 08:34:14;;;;;;;32.30;6.57;;;19.30;64.00;;;;;;5028956;28;20045;-75
2022/04/23 08:36:40;;;;;;;16.92;1.98;;;19.40;64.10;;;;;;5026472;28;20040;-71
2022/04/23 08:39:08;;;;;;;7.30;2.40;;;19.40;64.20;;;;;;5028962;28;20017;-71
2022/04/23 08:41:35;;;;;;;15.38;2.45;;;19.40;63.70;;;;;;5028440;28;20028;-69
2022/04/23 08:44:06;;;;;;;9.30;2.22;;;19.50;63.30;;;;;;5027498;28;20473;-77
2022/04/23 08:46:34;;;;;;;17.65;3.60;;;19.50;62.90;;;;;;5026383;28;20040;-70
2022/04/23 08:49:17;;;;;;;6.05;2.50;;;19.50;62.80;;;;;;5026788;28;20037;-67
2022/04/23 08:51:51;;;;;;;10.68;2.83;;;19.50;62.40;;;;;;5028135;28;20034;-69
2022/04/23 08:54:18;;;;;;;12.75;2.65;;;19.60;62.30;;;;;;5030511;28;20021;-77
2022/04/23 08:56:45;;;;;;;6.97;1.83;;;19.60;61.90;;;;;;5031059;28;20061;-69
2022/04/23 08:59:17;;;;;;;9.93;2.70;;;19.70;61.80;;;;;;5031350;28;20488;-69
2022/04/23 09:01:46;;;;;;;23.17;2.42;;;19.70;61.50;;;;;;5029296;28;20030;-71
2022/04/23 09:04:19;;;;;;;20.38;3.63;;;19.70;62.20;;;;;;5031537;28;20366;-76
2022/04/23 09:06:49;;;;;;;11.90;2.45;;;19.80;61.50;;;;;;5030038;28;20045;-72
2022/04/23 09:09:22;;;;;;;11.57;2.63;;;19.80;61.40;;;;;;5031407;28;20095;-72
2022/04/23 09:11:56;;;;;;;9.25;2.72;;;19.90;61.50;;;;;;5012616;28;20516;-71
2022/04/23 09:14:32;;;;;;;23.50;4.00;;;19.90;61.30;;;;;;5030312;28;20396;-71
2022/04/23 09:23:39;;;;;;;11.85;3.35;;;20.00;61.10;;;;;;5030794;28;20152;-80
2022/04/23 09:25:44;;;;;;;12.77;2.13;;;20.10;60.00;;;;;;5032837;28;20083;-71
2022/04/23 09:28:26;;;;;;;16.45;2.35;;;20.10;59.90;;;;;;5030239;28;20018;-73
2022/04/23 09:30:54;;;;;;;11.98;2.22;;;20.20;59.60;;;;;;5031599;28;20084;-73
2022/04/23 09:33:28;;;;;;;7.20;2.33;;;20.20;59.50;;;;;;5030773;28;20080;-73
2022/04/23 09:36:03;;;;;;;9.52;2.88;;;20.30;59.50;;;;;;5031759;28;20076;-69
2022/04/23 09:38:31;;;;;;;10.63;3.13;;;20.30;59.50;;;;;;5031369;28;20083;-80
2022/04/23 09:41:15;;;;;;;11.45;2.75;;;20.40;59.60;;;;;;5029753;28;20053;-75
2022/04/23 09:43:43;;;;;;;19.15;5.20;;;20.40;59.60;;;;;;5030965;28;20029;-73
2022/04/23 09:46:10;;;;;;;19.25;3.70;;;20.50;59.60;;;;;;5030432;28;20535;-79
2022/04/23 09:48:43;;;;;;;27.77;4.35;;;20.50;59.80;;;;;;5014094;28;20029;-78
2022/04/23 09:51:24;;;;;;;16.17;3.90;;;20.50;59.90;;;;;;5027221;28;20116;-76
2022/04/23 09:53:53;;;;;;;19.23;2.95;;;20.50;59.60;;;;;;5030827;28;20021;-71
2022/04/23 09:56:22;;;;;;;10.73;3.30;;;20.60;59.70;;;;;;5027644;28;20025;-74
2022/04/23 09:58:49;;;;;;;9.68;3.03;;;20.70;59.60;;;;;;5029573;28;20124;-71
2022/04/23 10:01:21;;;;;;;7.05;3.05;;;20.70;59.30;;;;;;5030779;28;20715;-69
2022/04/23 10:03:51;;;;;;;15.35;3.35;;;20.70;58.80;;;;;;5011691;28;20026;-68
2022/04/23 10:06:23;;;;;;;9.35;2.83;;;20.70;58.10;;;;;;5031802;28;20024;-69
2022/04/23 10:08:55;;;;;;;11.35;3.53;;;20.80;57.90;;;;;;5030421;28;20376;-68
2022/04/23 10:11:34;;;;;;;13.82;3.42;;;20.80;57.80;;;;;;5027549;28;20033;-75
2022/04/23 10:14:06;;;;;;;12.07;4.05;;;20.80;57.50;;;;;;5031200;28;20112;-70
2022/04/23 10:16:34;;;;;;;14.73;4.85;;;20.70;57.20;;;;;;5029991;28;20083;-68
2022/04/23 10:19:01;;;;;;;19.10;3.97;;;20.80;57.10;;;;;;5031077;28;20040;-69
2022/04/23 10:22:02;;;;;;;12.73;3.25;;;20.80;57.70;;;;;;5030367;28;20380;-68
2022/04/23 10:24:48;;;;;;;14.20;3.85;;;20.80;57.10;;;;;;5010329;28;20034;-69
2022/04/23 10:27:15;;;;;;;13.70;3.78;;;20.90;57.10;;;;;;5031023;28;20029;-69
2022/04/23 10:29:42;;;;;;;11.57;4.18;;;20.90;57.00;;;;;;5027874;28;20092;-68
2022/04/23 10:32:15;;;;;;;16.95;3.40;;;21.00;56.80;;;;;;5031023;28;20031;-71
2022/04/23 10:34:43;;;;;;;23.67;3.75;;;21.00;56.80;;;;;;5005033;28;20041;-70
2022/04/23 10:37:14;;;;;;;18.35;3.47;;;21.00;56.80;;;;;;5030799;28;20009;-69
2022/04/23 10:39:42;;;;;;;7.90;2.20;;;21.10;56.90;;;;;;5030079;28;20377;-70
2022/04/23 10:42:13;;;;;;;11.43;2.55;;;21.10;56.90;;;;;;5029505;28;20029;-73
2022/04/23 10:44:42;;;;;;;8.73;2.72;;;21.10;56.80;;;;;;5030648;28;20029;-76
2022/04/23 10:47:38;;;;;;;10.63;2.58;;;21.20;56.90;;;;;;5029641;28;20075;-77
2022/04/23 10:50:22;;;;;;;11.95;2.60;;;21.30;56.50;;;;;;5028656;28;20061;-77
2022/04/23 10:52:50;;;;;;;7.32;1.88;;;21.30;56.00;;;;;;5030068;28;20025;-78
2022/04/23 10:55:17;;;;;;;11.65;2.78;;;21.30;55.40;;;;;;5004295;28;20040;-79
2022/04/23 10:57:54;;;;;;;7.53;2.13;;;21.30;55.30;;;;;;5030804;28;20480;-75
2022/04/23 11:00:23;;;;;;;4.68;3.42;;;21.30;55.10;;;;;;5029818;28;20041;-69
2022/04/23 11:02:56;;;;;;;6.53;1.60;;;21.40;55.10;;;;;;5029319;28;20029;-69
2022/04/23 11:13:56;;;;;;;8.82;2.15;;;21.60;55.00;;;;;;5029613;28;20072;-68
2022/04/23 11:16:26;;;;;;;3.47;1.65;;;21.60;54.90;;;;;;5029299;28;20010;-72
2022/04/23 11:18:53;;;;;;;7.72;1.77;;;21.70;54.90;;;;;;5029622;28;20030;-68
2022/04/23 11:21:33;;;;;;;4.55;1.52;;;21.70;54.60;;;;;;5028835;28;20426;-69
2022/04/23 11:24:01;;;;;;;9.05;3.53;;;21.70;54.40;;;;;;5027590;28;20476;-68
2022/04/23 11:26:46;;;;;;;10.38;4.53;;;21.70;54.10;;;;;;5029042;28;20032;-68
2022/04/23 11:29:13;;;;;;;8.20;3.22;;;21.70;54.00;;;;;;5025681;28;20543;-70
2022/04/23 11:31:41;;;;;;;6.00;2.10;;;21.80;53.90;;;;;;5029768;28;20056;-70
2022/04/23 11:34:07;;;;;;;6.53;1.80;;;21.80;53.70;;;;;;5028115;28;20021;-69
2022/04/23 11:36:37;;;;;;;7.15;1.40;;;21.80;53.50;;;;;;5030066;28;20056;-72
2022/04/23 11:39:13;;;;;;;7.10;1.75;;;21.90;53.50;;;;;;5006163;28;20546;-69
2022/04/23 11:41:48;;;;;;;7.07;1.25;;;21.90;53.50;;;;;;5027746;28;20025;-70
2022/04/23 11:44:16;;;;;;;17.85;9.85;;;21.90;53.40;;;;;;5028251;28;20080;-70
2022/04/23 11:46:47;;;;;;;12.77;5.03;;;21.90;53.30;;;;;;5027936;28;20389;-72
2022/04/23 11:49:29;;;;;;;11.57;3.67;;;21.90;52.90;;;;;;5028359;28;20473;-76
2022/04/23 11:52:07;;;;;;;7.30;2.55;;;22.00;52.60;;;;;;5027922;28;20053;-72
2022/04/23 11:54:43;;;;;;;6.82;2.20;;;22.00;52.40;;;;;;5027788;28;20063;-76
2022/04/23 11:57:18;;;;;;;6.85;1.88;;;22.00;52.20;;;;;;5028093;28;20036;-73
2022/04/23 11:59:46;;;;;;;7.30;1.95;;;22.10;52.10;;;;;;5028250;28;20018;-75
2022/04/23 12:02:32;;;;;;;9.38;1.48;;;22.10;52.20;;;;;;5027244;28;20037;-77
2022/04/23 12:05:03;;;;;;;7.13;1.80;;;22.10;52.10;;;;;;5026376;28;20596;-73
2022/04/23 12:07:33;;;;;;;8.52;3.90;;;22.10;52.10;;;;;;5027573;28;20028;-71
2022/04/23 12:10:02;;;;;;;19.92;6.78;;;22.10;52.20;;;;;;5026945;28;20481;-68
2022/04/23 12:12:31;;;;;;;13.38;4.95;;;22.10;51.80;;;;;;5027948;28;20033;-73
2022/04/23 12:15:06;;;;;;;8.55;3.55;;;22.10;51.50;;;;;;5026928;28;20029;-72
2022/04/23 12:17:46;;;;;;;9.50;2.60;;;22.10;51.10;;;;;;5026198;28;20160;-72
2022/04/23 12:20:19;;;;;;;15.75;2.33;;;22.10;50.90;;;;;;5003671;28;20046;-68
2022/04/23 12:23:06;;;;;;;10.25;1.70;;;22.10;51.00;;;;;;5026504;28;20262;-72
2022/04/23 12:25:34;;;;;;;15.35;2.15;;;22.10;51.10;;;;;;5027591;28;20028;-75
2022/04/23 12:42:12;;;;;;;8.85;1.90;;;22.10;50.70;;;;;;5030750;28;20120;-75
2022/04/23 12:44:42;;;;;;;11.35;3.95;;;22.00;50.70;;;;;;5029324;28;20025;-70
2022/04/23 12:47:15;;;;;;;17.95;3.67;;;22.00;50.50;;;;;;5029097;28;20095;-73
2022/04/23 12:49:56;;;;;;;13.95;2.90;;;22.00;50.20;;;;;;5029868;28;20029;-76
2022/04/23 12:52:31;;;;;;;12.15;2.63;;;22.00;50.10;;;;;;5029528;28;20033;-75
2022/04/23 12:55:09;;;;;;;;;;;22.10;50.80;;;;;;5030540;28;20440;-78
2022/04/23 12:57:36;;;;;;;14.60;5.07;;;22.10;50.30;;;;;;5029855;28;19909;-74
2022/04/23 13:00:04;;;;;;;13.55;5.13;;;22.00;50.50;;;;;;5030603;28;20022;-71
2022/04/23 13:02:35;;;;;;;12.13;3.10;;;22.10;51.30;;;;;;5030062;28;20033;-68
2022/04/23 13:05:03;;;;;;;5.40;2.00;;;22.10;50.50;;;;;;5027343;28;20369;-73
2022/04/23 13:10:17;;;;;;;3.40;1.17;;;22.10;50.40;;;;;;5027240;28;20045;-69
2022/04/23 13:12:50;;;;;;;3.83;1.30;;;22.00;50.30;;;;;;5029926;28;20428;-76
2022/04/23 13:15:17;;;;;;;2.08;0.98;;;22.10;50.40;;;;;;5030018;28;20044;-75
2022/04/23 13:17:45;;;;;;;9.23;2.40;;;22.10;50.40;;;;;;5029081;28;20025;-70
2022/04/23 13:20:13;;;;;;;8.60;1.98;;;22.00;50.40;;;;;;5029695;28;20123;-70
2022/04/23 13:22:43;;;;;;;2.55;1.05;;;22.00;50.40;;;;;;5028426;28;20063;-74
2022/04/23 13:25:13;;;;;;;3.10;1.02;;;22.00;50.30;;;;;;5009445;28;20029;-69
2022/04/23 13:27:41;;;;;;;6.25;4.35;;;22.00;50.10;;;;;;5027849;28;20388;-72
2022/04/23 13:30:08;;;;;;;8.60;5.50;;;22.00;50.60;;;;;;5029815;28;20114;-70
2022/04/23 13:32:37;;;;;;;10.90;3.38;;;22.00;50.90;;;;;;5028644;28;20041;-77
2022/04/23 13:35:05;;;;;;;17.08;2.05;;;22.00;51.10;;;;;;5029767;28;20601;-74